UAE373 VTBS-OMDB
Flight info
| Callsign | UAE373 |
|---|---|
| Flight time | 5h 58m |
| Altitude | 36000 |
| Route | PASTO1G PASTO L301 RINDA/N0491F380 L301 RASKI/N0486F400 L301 RAGMA N571 VUSET A454 PASOV B540 MIVEK P574 IMPED |
| Aircraft | A388/J-SADE2E3FGHIJ3J4J5M1RWXY/LB1D1 |
Departure
| Time | 2026-05-04 19:59 |
|---|---|
| Airport | Suvarnabhumi Airport (VTBS) |
Arrival
| Time | 2026-05-05 01:58 |
|---|---|
| Airport | Dubai International Airport (OMDB) |
| Time | Latitude | Longitude | Altitude | Speed | Heading |
|---|---|---|---|---|---|
| 2026-05-04 19:37 | 13.68338 | 100.74796 | 18 ft | 0 kts | 194° |
| 2026-05-04 19:45 | 13.68343 | 100.74797 | 18 ft | 2 kts | 194° |
| 2026-05-04 19:45 | 13.68361 | 100.74802 | 20 ft | 3 kts | 194° |
| 2026-05-04 19:45 | 13.68381 | 100.74807 | 22 ft | 3 kts | 194° |
| 2026-05-04 19:45 | 13.68400 | 100.74812 | 21 ft | 3 kts | 201° |
| 2026-05-04 19:46 | 13.68417 | 100.74821 | 21 ft | 3 kts | 232° |
| 2026-05-04 19:46 | 13.68423 | 100.74831 | 23 ft | 1 kts | 284° |
| 2026-05-04 19:46 | 13.68419 | 100.74845 | 23 ft | 3 kts | 284° |
| 2026-05-04 19:46 | 13.68414 | 100.74865 | 23 ft | 3 kts | 284° |
| 2026-05-04 19:47 | 13.68412 | 100.74874 | 23 ft | 0 kts | 284° |
| 2026-05-04 19:52 | 13.68413 | 100.74871 | 23 ft | 2 kts | 284° |
| 2026-05-04 19:52 | 13.68420 | 100.74840 | 23 ft | 7 kts | 284° |
| 2026-05-04 19:52 | 13.68436 | 100.74775 | 21 ft | 12 kts | 284° |
| 2026-05-04 19:53 | 13.68459 | 100.74682 | 20 ft | 15 kts | 284° |
| 2026-05-04 19:53 | 13.68487 | 100.74569 | 20 ft | 18 kts | 284° |
| 2026-05-04 19:53 | 13.68520 | 100.74440 | 19 ft | 20 kts | 284° |
| 2026-05-04 19:53 | 13.68556 | 100.74298 | 18 ft | 21 kts | 284° |
| 2026-05-04 19:54 | 13.68604 | 100.74170 | 19 ft | 17 kts | 331° |
| 2026-05-04 19:54 | 13.68697 | 100.74117 | 19 ft | 15 kts | 300° |
| 2026-05-04 19:54 | 13.68776 | 100.74092 | 20 ft | 13 kts | 8° |
| 2026-05-04 19:54 | 13.68875 | 100.74117 | 23 ft | 16 kts | 14° |
| 2026-05-04 19:55 | 13.68986 | 100.74146 | 22 ft | 18 kts | 14° |
| 2026-05-04 19:55 | 13.69113 | 100.74179 | 20 ft | 19 kts | 14° |
| 2026-05-04 19:55 | 13.69245 | 100.74215 | 19 ft | 20 kts | 14° |
| 2026-05-04 19:55 | 13.69385 | 100.74252 | 18 ft | 21 kts | 13° |
| 2026-05-04 19:56 | 13.69530 | 100.74288 | 18 ft | 22 kts | 15° |
| 2026-05-04 19:56 | 13.69677 | 100.74328 | 19 ft | 22 kts | 14° |
| 2026-05-04 19:56 | 13.69828 | 100.74368 | 18 ft | 22 kts | 14° |
| 2026-05-04 19:56 | 13.69979 | 100.74408 | 21 ft | 22 kts | 14° |
| 2026-05-04 19:57 | 13.70131 | 100.74446 | 21 ft | 23 kts | 14° |
| 2026-05-04 19:57 | 13.70212 | 100.74468 | 18 ft | 11 kts | 15° |
| 2026-05-04 19:57 | 13.70294 | 100.74483 | 21 ft | 11 kts | 338° |
| 2026-05-04 19:57 | 13.70327 | 100.74450 | 23 ft | 0 kts | 296° |
| 2026-05-04 19:58 | 13.70330 | 100.74444 | 22 ft | 3 kts | 296° |
| 2026-05-04 19:58 | 13.70345 | 100.74395 | 23 ft | 10 kts | 272° |
| 2026-05-04 19:58 | 13.70323 | 100.74309 | 22 ft | 14 kts | 219° |
| 2026-05-04 19:58 | 13.70214 | 100.74279 | 23 ft | 31 kts | 194° |
| 2026-05-04 19:59 | 13.69746 | 100.74156 | 17 ft | 106 kts | 194° |
| 2026-05-04 19:59 | 13.68836 | 100.73917 | 20 ft | 158 kts | 194° |
| 2026-05-04 19:59 | 13.67718 | 100.73614 | 313 ft | 168 kts | 194° |
| 2026-05-04 19:59 | 13.66594 | 100.73306 | 853 ft | 167 kts | 193° |
| 2026-05-04 20:00 | 13.65450 | 100.73010 | 1304 ft | 172 kts | 192° |
| 2026-05-04 20:00 | 13.64283 | 100.72712 | 1746 ft | 176 kts | 193° |
| 2026-05-04 20:00 | 13.63048 | 100.72393 | 1939 ft | 192 kts | 193° |
| 2026-05-04 20:00 | 13.61701 | 100.72040 | 2067 ft | 207 kts | 194° |
| 2026-05-04 20:01 | 13.60253 | 100.71660 | 2166 ft | 224 kts | 194° |
| 2026-05-04 20:01 | 13.58666 | 100.71241 | 2439 ft | 246 kts | 194° |
| 2026-05-04 20:01 | 13.56938 | 100.70785 | 2844 ft | 262 kts | 194° |
| 2026-05-04 20:01 | 13.55199 | 100.70209 | 3532 ft | 266 kts | 208° |
| 2026-05-04 20:02 | 13.53812 | 100.68948 | 4230 ft | 271 kts | 235° |
| 2026-05-04 20:02 | 13.53109 | 100.67141 | 4937 ft | 278 kts | 261° |
| 2026-05-04 20:02 | 13.53239 | 100.65159 | 5646 ft | 282 kts | 283° |
| 2026-05-04 20:02 | 13.53782 | 100.63202 | 6327 ft | 286 kts | 287° |
| 2026-05-04 20:03 | 13.54382 | 100.61241 | 6983 ft | 289 kts | 287° |
| 2026-05-04 20:03 | 13.55126 | 100.59317 | 7604 ft | 293 kts | 303° |
| 2026-05-04 20:03 | 13.56550 | 100.57831 | 8267 ft | 294 kts | 329° |
| 2026-05-04 20:03 | 13.58452 | 100.57096 | 8931 ft | 294 kts | 354° |
| 2026-05-04 20:04 | 13.60494 | 100.57072 | 9576 ft | 296 kts | 4° |
| 2026-05-04 20:04 | 13.62569 | 100.57203 | 9926 ft | 300 kts | 5° |
| 2026-05-04 20:04 | 13.64657 | 100.57336 | 9998 ft | 301 kts | 4° |
| 2026-05-04 20:04 | 13.66762 | 100.57438 | 10008 ft | 308 kts | 3° |
| 2026-05-04 20:05 | 13.68968 | 100.57519 | 10157 ft | 327 kts | 3° |
| 2026-05-04 20:05 | 13.71265 | 100.57587 | 10321 ft | 343 kts | 2° |
| 2026-05-04 20:05 | 13.73684 | 100.57652 | 10760 ft | 349 kts | 2° |
| 2026-05-04 20:05 | 13.76154 | 100.57649 | 11321 ft | 353 kts | 355° |
| 2026-05-04 20:06 | 13.78531 | 100.57114 | 11868 ft | 357 kts | 341° |
| 2026-05-04 20:06 | 13.80789 | 100.55957 | 12452 ft | 360 kts | 328° |
| 2026-05-04 20:06 | 13.82891 | 100.54604 | 12983 ft | 363 kts | 328° |
| 2026-05-04 20:06 | 13.85051 | 100.53235 | 13549 ft | 366 kts | 329° |
| 2026-05-04 20:07 | 13.87230 | 100.51865 | 14082 ft | 368 kts | 329° |
| 2026-05-04 20:07 | 13.89426 | 100.50486 | 14578 ft | 371 kts | 329° |
| 2026-05-04 20:07 | 13.91624 | 100.49075 | 15074 ft | 373 kts | 324° |
| 2026-05-04 20:07 | 13.93472 | 100.47193 | 15540 ft | 377 kts | 305° |
| 2026-05-04 20:08 | 13.94653 | 100.44790 | 16068 ft | 379 kts | 287° |
| 2026-05-04 20:08 | 13.95167 | 100.42118 | 16503 ft | 382 kts | 277° |
| 2026-05-04 20:08 | 13.95496 | 100.39398 | 17059 ft | 384 kts | 277° |
| 2026-05-04 20:08 | 13.95815 | 100.36663 | 17520 ft | 386 kts | 277° |
| 2026-05-04 20:09 | 13.96161 | 100.33912 | 18018 ft | 389 kts | 277° |
| 2026-05-04 20:09 | 13.96530 | 100.31149 | 18459 ft | 391 kts | 278° |
| 2026-05-04 20:09 | 13.96915 | 100.28371 | 18893 ft | 392 kts | 278° |
| 2026-05-04 20:09 | 13.97306 | 100.25588 | 19332 ft | 393 kts | 278° |
| 2026-05-04 20:10 | 13.97582 | 100.22782 | 19678 ft | 396 kts | 272° |
| 2026-05-04 20:10 | 13.97668 | 100.19942 | 20069 ft | 398 kts | 272° |
| 2026-05-04 20:10 | 13.97766 | 100.17089 | 20464 ft | 400 kts | 272° |
| 2026-05-04 20:10 | 13.97871 | 100.14221 | 20854 ft | 402 kts | 272° |
| 2026-05-04 20:11 | 13.97977 | 100.11336 | 21227 ft | 404 kts | 272° |
| 2026-05-04 20:11 | 13.98083 | 100.08443 | 21619 ft | 406 kts | 272° |
| 2026-05-04 20:11 | 13.98190 | 100.05528 | 21993 ft | 408 kts | 272° |
| 2026-05-04 20:11 | 13.98295 | 100.02607 | 22364 ft | 410 kts | 272° |
| 2026-05-04 20:12 | 13.98401 | 99.99666 | 22741 ft | 412 kts | 272° |
| 2026-05-04 20:12 | 13.98471 | 99.97712 | 22973 ft | 413 kts | 272° |
| 2026-05-04 20:12 | 13.98613 | 99.93740 | 23454 ft | 416 kts | 272° |
| 2026-05-04 20:12 | 13.98683 | 99.91771 | 23653 ft | 417 kts | 272° |
| 2026-05-04 20:13 | 13.98789 | 99.88781 | 23964 ft | 419 kts | 272° |
| 2026-05-04 20:13 | 13.98895 | 99.85776 | 24251 ft | 420 kts | 272° |
| 2026-05-04 20:13 | 13.99002 | 99.82766 | 24562 ft | 422 kts | 272° |
| 2026-05-04 20:13 | 13.99108 | 99.79742 | 24832 ft | 424 kts | 272° |
| 2026-05-04 20:14 | 13.99214 | 99.76703 | 25138 ft | 425 kts | 272° |
| 2026-05-04 20:14 | 13.99320 | 99.73655 | 25437 ft | 427 kts | 272° |
| 2026-05-04 20:14 | 13.99427 | 99.70592 | 25733 ft | 429 kts | 272° |
| 2026-05-04 20:14 | 13.99533 | 99.67520 | 26033 ft | 430 kts | 272° |
| 2026-05-04 20:15 | 13.99640 | 99.64436 | 26341 ft | 432 kts | 272° |
| 2026-05-04 20:15 | 13.99746 | 99.61341 | 26661 ft | 433 kts | 272° |
| 2026-05-04 20:15 | 13.99853 | 99.58233 | 26974 ft | 435 kts | 272° |
| 2026-05-04 20:15 | 13.99959 | 99.55115 | 27291 ft | 437 kts | 272° |
| 2026-05-04 20:16 | 14.00066 | 99.51978 | 27625 ft | 439 kts | 272° |
| 2026-05-04 20:16 | 14.00241 | 99.48839 | 27948 ft | 441 kts | 276° |
| 2026-05-04 20:16 | 14.00555 | 99.45693 | 28268 ft | 443 kts | 276° |
| 2026-05-04 20:16 | 14.00863 | 99.42526 | 28588 ft | 446 kts | 276° |
| 2026-05-04 20:17 | 14.01169 | 99.39343 | 28958 ft | 447 kts | 276° |
| 2026-05-04 20:17 | 14.01474 | 99.36150 | 29329 ft | 450 kts | 276° |
| 2026-05-04 20:17 | 14.01780 | 99.32940 | 29700 ft | 452 kts | 276° |
| 2026-05-04 20:17 | 14.02088 | 99.29707 | 30063 ft | 454 kts | 276° |
| 2026-05-04 20:18 | 14.02396 | 99.26464 | 30425 ft | 456 kts | 276° |
| 2026-05-04 20:18 | 14.02706 | 99.23205 | 30804 ft | 458 kts | 276° |
| 2026-05-04 20:18 | 14.03016 | 99.19942 | 31155 ft | 459 kts | 276° |
| 2026-05-04 20:18 | 14.03327 | 99.16657 | 31508 ft | 461 kts | 276° |
| 2026-05-04 20:19 | 14.03638 | 99.13372 | 31881 ft | 463 kts | 276° |
| 2026-05-04 20:19 | 14.03947 | 99.10101 | 32230 ft | 465 kts | 276° |
| 2026-05-04 20:19 | 14.04261 | 99.06775 | 32538 ft | 469 kts | 276° |
| 2026-05-04 20:19 | 14.04577 | 99.03425 | 32855 ft | 471 kts | 276° |
| 2026-05-04 20:20 | 14.04897 | 99.00018 | 33237 ft | 473 kts | 276° |
| 2026-05-04 20:20 | 14.05210 | 98.96690 | 33583 ft | 475 kts | 276° |
| 2026-05-04 20:20 | 14.05477 | 98.93294 | 33917 ft | 477 kts | 274° |
| 2026-05-04 20:20 | 14.05688 | 98.89884 | 34223 ft | 479 kts | 274° |
| 2026-05-04 20:21 | 14.05891 | 98.86445 | 34513 ft | 482 kts | 274° |
| 2026-05-04 20:21 | 14.06100 | 98.82997 | 34832 ft | 483 kts | 274° |
| 2026-05-04 20:21 | 14.06536 | 98.76102 | 35661 ft | 481 kts | 274° |
| 2026-05-04 20:22 | 14.06757 | 98.72663 | 35891 ft | 481 kts | 274° |
| 2026-05-04 20:22 | 14.06980 | 98.69206 | 35922 ft | 485 kts | 274° |
| 2026-05-04 20:22 | 14.07426 | 98.62280 | 35915 ft | 486 kts | 274° |
| 2026-05-04 20:23 | 14.07870 | 98.55346 | 35914 ft | 485 kts | 274° |
| 2026-05-04 20:23 | 14.08312 | 98.48405 | 35898 ft | 485 kts | 274° |
| 2026-05-04 20:24 | 14.08752 | 98.41469 | 35904 ft | 485 kts | 274° |
| 2026-05-04 20:24 | 14.09189 | 98.34539 | 35898 ft | 485 kts | 274° |
| 2026-05-04 20:25 | 14.09624 | 98.27607 | 35876 ft | 485 kts | 274° |
| 2026-05-04 20:25 | 14.10217 | 98.20690 | 35876 ft | 485 kts | 280° |
| 2026-05-04 20:26 | 14.11756 | 98.13937 | 35863 ft | 485 kts | 285° |
| 2026-05-04 20:26 | 14.13445 | 98.07211 | 35870 ft | 485 kts | 284° |
| 2026-05-04 20:27 | 14.15127 | 98.00476 | 35868 ft | 486 kts | 285° |
| 2026-05-04 20:27 | 14.16815 | 97.93733 | 35873 ft | 486 kts | 285° |
| 2026-05-04 20:28 | 14.18494 | 97.87023 | 35866 ft | 487 kts | 284° |
| 2026-05-04 20:28 | 14.20182 | 97.80265 | 35873 ft | 487 kts | 284° |
| 2026-05-04 20:29 | 14.21869 | 97.73502 | 35869 ft | 487 kts | 284° |
| 2026-05-04 20:29 | 14.23551 | 97.66745 | 35872 ft | 487 kts | 284° |
| 2026-05-04 20:30 | 14.25232 | 97.59987 | 35864 ft | 487 kts | 284° |
| 2026-05-04 20:30 | 14.26911 | 97.53230 | 35863 ft | 486 kts | 284° |
| 2026-05-04 20:31 | 14.28586 | 97.46476 | 35858 ft | 486 kts | 284° |
| 2026-05-04 20:31 | 14.30260 | 97.39722 | 35864 ft | 486 kts | 284° |
| 2026-05-04 20:32 | 14.31930 | 97.32970 | 35861 ft | 486 kts | 284° |
| 2026-05-04 20:32 | 14.33601 | 97.26208 | 35857 ft | 486 kts | 284° |
| 2026-05-04 20:33 | 14.35269 | 97.19451 | 35863 ft | 486 kts | 284° |
| 2026-05-04 20:33 | 14.36935 | 97.12691 | 35860 ft | 486 kts | 284° |
| 2026-05-04 20:34 | 14.38599 | 97.05932 | 35863 ft | 486 kts | 284° |
| 2026-05-04 20:34 | 14.40262 | 96.99169 | 35856 ft | 486 kts | 284° |
| 2026-05-04 20:35 | 14.41923 | 96.92404 | 35857 ft | 486 kts | 284° |
| 2026-05-04 20:35 | 14.43581 | 96.85641 | 35858 ft | 486 kts | 284° |
| 2026-05-04 20:36 | 14.45239 | 96.78871 | 35856 ft | 486 kts | 284° |
| 2026-05-04 20:36 | 14.46893 | 96.72108 | 35860 ft | 486 kts | 284° |
| 2026-05-04 20:37 | 14.48545 | 96.65341 | 35842 ft | 487 kts | 284° |
| 2026-05-04 20:37 | 14.50187 | 96.58610 | 35847 ft | 487 kts | 284° |
| 2026-05-04 20:38 | 14.51842 | 96.51816 | 35849 ft | 488 kts | 284° |
| 2026-05-04 20:38 | 14.53495 | 96.45021 | 35857 ft | 488 kts | 284° |
| 2026-05-04 20:39 | 14.55146 | 96.38226 | 35859 ft | 488 kts | 284° |
| 2026-05-04 20:39 | 14.56797 | 96.31421 | 35865 ft | 488 kts | 284° |
| 2026-05-04 20:40 | 14.58445 | 96.24620 | 35854 ft | 488 kts | 284° |
| 2026-05-04 20:40 | 14.60089 | 96.17824 | 35853 ft | 488 kts | 284° |
| 2026-05-04 20:41 | 14.61731 | 96.11029 | 35850 ft | 488 kts | 284° |
| 2026-05-04 20:41 | 14.63369 | 96.04242 | 35855 ft | 487 kts | 284° |
| 2026-05-04 20:42 | 14.65005 | 95.97454 | 35856 ft | 487 kts | 284° |
| 2026-05-04 20:42 | 14.66635 | 95.90681 | 35850 ft | 486 kts | 284° |
| 2026-05-04 20:43 | 14.68263 | 95.83905 | 35847 ft | 486 kts | 284° |
| 2026-05-04 20:43 | 14.69889 | 95.77132 | 35846 ft | 486 kts | 284° |
| 2026-05-04 20:44 | 14.71512 | 95.70361 | 35848 ft | 486 kts | 284° |
| 2026-05-04 20:44 | 14.73133 | 95.63589 | 35848 ft | 486 kts | 284° |
| 2026-05-04 20:45 | 14.74753 | 95.56811 | 35849 ft | 486 kts | 284° |
| 2026-05-04 20:45 | 14.76369 | 95.50039 | 35849 ft | 486 kts | 284° |
| 2026-05-04 20:46 | 14.77985 | 95.43260 | 35848 ft | 486 kts | 284° |
| 2026-05-04 20:46 | 14.79600 | 95.36478 | 35850 ft | 486 kts | 284° |
| 2026-05-04 20:47 | 14.81211 | 95.29700 | 35861 ft | 486 kts | 284° |
| 2026-05-04 20:47 | 14.82820 | 95.22921 | 35859 ft | 485 kts | 284° |
| 2026-05-04 20:48 | 14.84426 | 95.16146 | 35857 ft | 485 kts | 284° |
| 2026-05-04 20:48 | 14.86029 | 95.09377 | 35854 ft | 485 kts | 284° |
| 2026-05-04 20:49 | 14.87629 | 95.02608 | 35853 ft | 485 kts | 284° |
| 2026-05-04 20:49 | 14.89218 | 94.95879 | 35838 ft | 485 kts | 284° |
| 2026-05-04 20:50 | 14.90816 | 94.89101 | 35843 ft | 486 kts | 284° |
| 2026-05-04 20:50 | 14.92424 | 94.82269 | 35848 ft | 486 kts | 284° |
| 2026-05-04 20:51 | 14.94022 | 94.75473 | 35854 ft | 487 kts | 284° |
| 2026-05-04 20:51 | 14.95608 | 94.68717 | 35856 ft | 487 kts | 284° |
| 2026-05-04 20:52 | 14.97204 | 94.61908 | 35858 ft | 487 kts | 283° |
| 2026-05-04 20:52 | 14.98799 | 94.55098 | 35855 ft | 488 kts | 283° |
| 2026-05-04 20:53 | 15.00394 | 94.48274 | 35855 ft | 488 kts | 283° |
| 2026-05-04 20:53 | 15.01988 | 94.41447 | 35855 ft | 488 kts | 283° |
| 2026-05-04 20:54 | 15.03580 | 94.34618 | 35856 ft | 488 kts | 283° |
| 2026-05-04 20:54 | 15.05170 | 94.27787 | 35857 ft | 489 kts | 283° |
| 2026-05-04 20:55 | 15.06758 | 94.20954 | 35860 ft | 489 kts | 283° |
| 2026-05-04 20:55 | 15.08345 | 94.14117 | 35856 ft | 489 kts | 283° |
| 2026-05-04 20:56 | 15.09928 | 94.07285 | 35856 ft | 489 kts | 283° |
| 2026-05-04 20:56 | 15.11513 | 94.00437 | 35857 ft | 489 kts | 283° |
| 2026-05-04 20:57 | 15.13094 | 93.93597 | 35857 ft | 489 kts | 283° |
| 2026-05-04 20:57 | 15.14674 | 93.86749 | 35857 ft | 489 kts | 283° |
| 2026-05-04 20:58 | 15.15982 | 93.81075 | 35861 ft | 489 kts | 283° |
| 2026-05-04 20:58 | 15.17561 | 93.74213 | 35858 ft | 489 kts | 283° |
| 2026-05-04 20:59 | 15.19133 | 93.67374 | 35858 ft | 489 kts | 283° |
| 2026-05-04 20:59 | 15.20958 | 93.59419 | 35856 ft | 488 kts | 283° |
| 2026-05-04 21:00 | 15.22270 | 93.53693 | 35855 ft | 488 kts | 283° |
| 2026-05-04 21:00 | 15.23837 | 93.46847 | 35857 ft | 488 kts | 283° |
| 2026-05-04 21:01 | 15.25400 | 93.40005 | 35855 ft | 488 kts | 283° |
| 2026-05-04 21:01 | 15.26961 | 93.33161 | 35855 ft | 488 kts | 283° |
| 2026-05-04 21:02 | 15.28511 | 93.26357 | 35854 ft | 488 kts | 283° |
| 2026-05-04 21:02 | 15.30068 | 93.19513 | 35855 ft | 489 kts | 283° |
| 2026-05-04 21:03 | 15.31623 | 93.12666 | 35856 ft | 489 kts | 283° |
| 2026-05-04 21:03 | 15.33179 | 93.05807 | 35857 ft | 489 kts | 283° |
| 2026-05-04 21:04 | 15.34730 | 92.98956 | 35858 ft | 489 kts | 283° |
| 2026-05-04 21:04 | 15.36278 | 92.92108 | 35858 ft | 489 kts | 283° |
| 2026-05-04 21:05 | 15.37828 | 92.85246 | 35856 ft | 488 kts | 283° |
| 2026-05-04 21:05 | 15.39374 | 92.78392 | 35856 ft | 488 kts | 283° |
| 2026-05-04 21:06 | 15.40919 | 92.71540 | 35856 ft | 488 kts | 283° |
| 2026-05-04 21:06 | 15.42333 | 92.65261 | 35859 ft | 488 kts | 283° |
| 2026-05-04 21:07 | 15.43928 | 92.58418 | 35858 ft | 488 kts | 284° |
| 2026-05-04 21:07 | 15.45636 | 92.51616 | 35858 ft | 488 kts | 284° |
| 2026-05-04 21:08 | 15.47335 | 92.44795 | 35856 ft | 488 kts | 284° |
| 2026-05-04 21:08 | 15.49007 | 92.38023 | 35857 ft | 488 kts | 284° |
| 2026-05-04 21:09 | 15.50696 | 92.31157 | 35856 ft | 488 kts | 284° |
| 2026-05-04 21:09 | 15.52373 | 92.24337 | 35855 ft | 488 kts | 284° |
| 2026-05-04 21:10 | 15.54037 | 92.17558 | 35857 ft | 488 kts | 284° |
| 2026-05-04 21:10 | 15.55711 | 92.10732 | 35855 ft | 488 kts | 284° |
| 2026-05-04 21:11 | 15.57381 | 92.03907 | 35857 ft | 488 kts | 284° |
| 2026-05-04 21:11 | 15.59047 | 91.97079 | 35858 ft | 488 kts | 283° |
| 2026-05-04 21:12 | 15.60691 | 91.90244 | 35859 ft | 488 kts | 283° |
| 2026-05-04 21:12 | 15.62333 | 91.83407 | 35855 ft | 489 kts | 283° |
| 2026-05-04 21:13 | 15.63977 | 91.76563 | 35855 ft | 489 kts | 283° |
| 2026-05-04 21:13 | 15.65618 | 91.69723 | 35856 ft | 489 kts | 283° |
| 2026-05-04 21:14 | 15.67259 | 91.62875 | 35857 ft | 489 kts | 283° |
| 2026-05-04 21:14 | 15.68897 | 91.56027 | 35857 ft | 489 kts | 283° |
| 2026-05-04 21:15 | 15.70533 | 91.49176 | 35859 ft | 489 kts | 283° |
| 2026-05-04 21:15 | 15.72167 | 91.42323 | 35859 ft | 489 kts | 283° |
| 2026-05-04 21:16 | 15.73800 | 91.35469 | 35858 ft | 489 kts | 283° |
| 2026-05-04 21:16 | 15.75419 | 91.28661 | 35857 ft | 489 kts | 283° |
| 2026-05-04 21:17 | 15.77046 | 91.21809 | 35856 ft | 489 kts | 283° |
| 2026-05-04 21:17 | 15.78670 | 91.14959 | 35856 ft | 489 kts | 283° |
| 2026-05-04 21:18 | 15.80293 | 91.08103 | 35856 ft | 489 kts | 283° |
| 2026-05-04 21:18 | 15.81913 | 91.01249 | 35855 ft | 489 kts | 283° |
| 2026-05-04 21:19 | 15.83532 | 90.94391 | 35856 ft | 489 kts | 283° |
| 2026-05-04 21:19 | 15.85148 | 90.87535 | 35856 ft | 489 kts | 283° |
| 2026-05-04 21:20 | 15.86763 | 90.80673 | 35856 ft | 489 kts | 283° |
| 2026-05-04 21:20 | 15.88375 | 90.73810 | 35866 ft | 489 kts | 283° |
| 2026-05-04 21:21 | 15.89983 | 90.66958 | 35862 ft | 488 kts | 283° |
| 2026-05-04 21:21 | 15.91589 | 90.60103 | 35858 ft | 488 kts | 283° |
| 2026-05-04 21:22 | 15.93192 | 90.53253 | 35856 ft | 488 kts | 283° |
| 2026-05-04 21:22 | 15.94790 | 90.46410 | 35854 ft | 487 kts | 283° |
| 2026-05-04 21:23 | 15.96386 | 90.39566 | 35853 ft | 487 kts | 283° |
| 2026-05-04 21:23 | 15.97980 | 90.32723 | 35858 ft | 487 kts | 283° |
| 2026-05-04 21:24 | 15.99570 | 90.25884 | 35858 ft | 487 kts | 283° |
| 2026-05-04 21:24 | 16.01157 | 90.19051 | 35855 ft | 487 kts | 283° |
| 2026-05-04 21:25 | 16.02765 | 90.12221 | 35854 ft | 486 kts | 283° |
| 2026-05-04 21:25 | 16.04420 | 90.05400 | 35853 ft | 486 kts | 283° |
| 2026-05-04 21:26 | 16.06068 | 89.98580 | 35855 ft | 486 kts | 283° |
| 2026-05-04 21:26 | 16.07709 | 89.91756 | 35856 ft | 486 kts | 283° |
| 2026-05-04 21:27 | 16.09344 | 89.84941 | 35854 ft | 486 kts | 283° |
| 2026-05-04 21:27 | 16.10979 | 89.78117 | 35853 ft | 486 kts | 283° |
| 2026-05-04 21:28 | 16.12609 | 89.71302 | 35853 ft | 486 kts | 283° |
| 2026-05-04 21:28 | 16.14237 | 89.64486 | 35852 ft | 486 kts | 283° |
| 2026-05-04 21:29 | 16.15863 | 89.57669 | 35854 ft | 486 kts | 283° |
| 2026-05-04 21:29 | 16.17487 | 89.50850 | 35855 ft | 486 kts | 283° |
| 2026-05-04 21:30 | 16.19110 | 89.44027 | 35856 ft | 486 kts | 283° |
| 2026-05-04 21:30 | 16.20730 | 89.37205 | 35856 ft | 486 kts | 283° |
| 2026-05-04 21:31 | 16.23144 | 89.27018 | 35854 ft | 486 kts | 283° |
| 2026-05-04 21:32 | 16.24759 | 89.20190 | 35861 ft | 486 kts | 283° |
| 2026-05-04 21:32 | 16.26369 | 89.13375 | 35858 ft | 485 kts | 283° |
| 2026-05-04 21:33 | 16.27983 | 89.06552 | 35855 ft | 485 kts | 283° |
| 2026-05-04 21:33 | 16.29643 | 88.99749 | 35853 ft | 485 kts | 283° |
| 2026-05-04 21:34 | 16.31305 | 88.92950 | 35852 ft | 484 kts | 283° |
| 2026-05-04 21:34 | 16.32958 | 88.86153 | 35851 ft | 484 kts | 283° |
| 2026-05-04 21:35 | 16.34606 | 88.79358 | 35866 ft | 484 kts | 283° |
| 2026-05-04 21:35 | 16.36248 | 88.72575 | 35856 ft | 483 kts | 283° |
| 2026-05-04 21:36 | 16.37889 | 88.65787 | 35853 ft | 483 kts | 283° |
| 2026-05-04 21:36 | 16.39526 | 88.59009 | 35851 ft | 483 kts | 283° |
| 2026-05-04 21:37 | 16.41158 | 88.52237 | 35851 ft | 482 kts | 283° |
| 2026-05-04 21:37 | 16.42790 | 88.45456 | 35859 ft | 482 kts | 283° |
| 2026-05-04 21:38 | 16.44418 | 88.38682 | 35856 ft | 482 kts | 283° |
| 2026-05-04 21:38 | 16.46042 | 88.31913 | 35854 ft | 481 kts | 283° |
| 2026-05-04 21:39 | 16.47662 | 88.25152 | 35851 ft | 481 kts | 283° |
| 2026-05-04 21:39 | 16.49269 | 88.18436 | 35845 ft | 481 kts | 283° |
| 2026-05-04 21:40 | 16.50883 | 88.11676 | 35843 ft | 481 kts | 283° |
| 2026-05-04 21:40 | 16.52496 | 88.04918 | 35853 ft | 480 kts | 283° |
| 2026-05-04 21:41 | 16.54102 | 87.98171 | 35850 ft | 480 kts | 283° |
| 2026-05-04 21:41 | 16.55707 | 87.91424 | 35846 ft | 480 kts | 283° |
| 2026-05-04 21:42 | 16.57309 | 87.84676 | 35848 ft | 479 kts | 283° |
| 2026-05-04 21:42 | 16.58907 | 87.77933 | 35846 ft | 479 kts | 283° |
| 2026-05-04 21:43 | 16.60505 | 87.71184 | 35847 ft | 479 kts | 283° |
| 2026-05-04 21:43 | 16.62098 | 87.64446 | 35847 ft | 479 kts | 282° |
| 2026-05-04 21:44 | 16.63688 | 87.57705 | 35846 ft | 478 kts | 282° |
| 2026-05-04 21:44 | 16.65275 | 87.50971 | 35843 ft | 478 kts | 282° |
| 2026-05-04 21:45 | 16.66857 | 87.44244 | 35843 ft | 478 kts | 282° |
| 2026-05-04 21:45 | 16.68440 | 87.37509 | 35846 ft | 478 kts | 282° |
| 2026-05-04 21:46 | 16.70018 | 87.30782 | 35851 ft | 477 kts | 282° |
| 2026-05-04 21:46 | 16.71590 | 87.24066 | 35845 ft | 477 kts | 282° |
| 2026-05-04 21:47 | 16.73162 | 87.17348 | 35843 ft | 476 kts | 282° |
| 2026-05-04 21:47 | 16.74471 | 87.11774 | 35840 ft | 476 kts | 282° |
| 2026-05-04 21:48 | 16.76071 | 87.05072 | 35834 ft | 476 kts | 282° |
| 2026-05-04 21:48 | 16.77669 | 86.98375 | 35833 ft | 476 kts | 282° |
| 2026-05-04 21:49 | 16.79262 | 86.91673 | 35840 ft | 476 kts | 282° |
| 2026-05-04 21:49 | 16.80850 | 86.84979 | 35839 ft | 475 kts | 282° |
| 2026-05-04 21:50 | 16.82435 | 86.78285 | 35837 ft | 475 kts | 282° |
| 2026-05-04 21:50 | 16.84016 | 86.71597 | 35834 ft | 475 kts | 282° |
| 2026-05-04 21:51 | 16.85596 | 86.64904 | 35833 ft | 475 kts | 282° |
| 2026-05-04 21:51 | 16.87173 | 86.58215 | 35835 ft | 475 kts | 282° |
| 2026-05-04 21:52 | 16.88748 | 86.51522 | 35836 ft | 474 kts | 282° |
| 2026-05-04 21:52 | 16.90319 | 86.44838 | 35831 ft | 474 kts | 282° |
| 2026-05-04 21:53 | 16.91888 | 86.38149 | 35830 ft | 474 kts | 282° |
| 2026-05-04 21:53 | 16.93456 | 86.31457 | 35829 ft | 474 kts | 282° |
| 2026-05-04 21:54 | 16.95022 | 86.24762 | 35828 ft | 474 kts | 282° |
| 2026-05-04 21:54 | 16.96584 | 86.18075 | 35832 ft | 474 kts | 282° |
| 2026-05-04 21:55 | 16.98145 | 86.11378 | 35827 ft | 474 kts | 282° |
| 2026-05-04 21:55 | 16.99704 | 86.04682 | 35827 ft | 474 kts | 282° |
| 2026-05-04 21:56 | 17.01260 | 85.97987 | 35837 ft | 474 kts | 282° |
| 2026-05-04 21:56 | 17.02811 | 85.91304 | 35832 ft | 474 kts | 282° |
| 2026-05-04 21:57 | 17.04364 | 85.84602 | 35826 ft | 474 kts | 282° |
| 2026-05-04 21:57 | 17.05902 | 85.77953 | 35825 ft | 474 kts | 282° |
| 2026-05-04 21:58 | 17.07446 | 85.71270 | 35824 ft | 474 kts | 282° |
| 2026-05-04 21:58 | 17.08990 | 85.64573 | 35824 ft | 474 kts | 282° |
| 2026-05-04 21:59 | 17.10530 | 85.57887 | 35824 ft | 474 kts | 282° |
| 2026-05-04 21:59 | 17.12070 | 85.51189 | 35825 ft | 474 kts | 282° |
| 2026-05-04 22:00 | 17.13605 | 85.44498 | 35826 ft | 474 kts | 282° |
| 2026-05-04 22:00 | 17.15139 | 85.37805 | 35830 ft | 473 kts | 282° |
| 2026-05-04 22:01 | 17.16672 | 85.31110 | 35828 ft | 473 kts | 282° |
| 2026-05-04 22:01 | 17.18240 | 85.24434 | 35823 ft | 473 kts | 282° |
| 2026-05-04 22:02 | 17.19842 | 85.17758 | 35823 ft | 473 kts | 282° |
| 2026-05-04 22:02 | 17.21433 | 85.11084 | 35823 ft | 473 kts | 282° |
| 2026-05-04 22:03 | 17.23016 | 85.04414 | 35826 ft | 473 kts | 282° |
| 2026-05-04 22:03 | 17.24599 | 84.97736 | 35828 ft | 472 kts | 282° |
| 2026-05-04 22:04 | 17.26176 | 84.91066 | 35822 ft | 472 kts | 282° |
| 2026-05-04 22:04 | 17.27751 | 84.84400 | 35823 ft | 472 kts | 282° |
| 2026-05-04 22:05 | 17.29322 | 84.77737 | 35822 ft | 472 kts | 282° |
| 2026-05-04 22:05 | 17.30891 | 84.71073 | 35822 ft | 472 kts | 282° |
| 2026-05-04 22:06 | 17.32459 | 84.64406 | 35824 ft | 472 kts | 282° |
| 2026-05-04 22:06 | 17.34026 | 84.57729 | 35823 ft | 472 kts | 282° |
| 2026-05-04 22:07 | 17.35591 | 84.51052 | 35818 ft | 473 kts | 282° |
| 2026-05-04 22:07 | 17.37197 | 84.44380 | 35824 ft | 473 kts | 283° |
| 2026-05-04 22:08 | 17.38852 | 84.37712 | 35823 ft | 473 kts | 282° |
| 2026-05-04 22:08 | 17.40495 | 84.31040 | 35824 ft | 473 kts | 282° |
| 2026-05-04 22:09 | 17.42132 | 84.24362 | 35824 ft | 474 kts | 282° |
| 2026-05-04 22:09 | 17.43767 | 84.17675 | 35825 ft | 474 kts | 282° |
| 2026-05-04 22:10 | 17.45401 | 84.10986 | 35823 ft | 474 kts | 282° |
| 2026-05-04 22:10 | 17.47032 | 84.04296 | 35828 ft | 474 kts | 282° |
| 2026-05-04 22:11 | 17.48660 | 83.97611 | 35829 ft | 474 kts | 282° |
| 2026-05-04 22:11 | 17.50287 | 83.90920 | 35829 ft | 474 kts | 282° |
| 2026-05-04 22:12 | 17.51971 | 83.84283 | 35820 ft | 475 kts | 283° |
| 2026-05-04 22:12 | 17.53684 | 83.77597 | 35821 ft | 475 kts | 283° |
| 2026-05-04 22:13 | 17.55385 | 83.70904 | 35823 ft | 476 kts | 283° |
| 2026-05-04 22:13 | 17.57081 | 83.64206 | 35824 ft | 476 kts | 283° |
| 2026-05-04 22:14 | 17.58776 | 83.57502 | 35828 ft | 476 kts | 283° |
| 2026-05-04 22:14 | 17.60470 | 83.50793 | 35821 ft | 476 kts | 282° |
| 2026-05-04 22:15 | 17.62162 | 83.44082 | 35821 ft | 476 kts | 282° |
| 2026-05-04 22:15 | 17.63852 | 83.37365 | 35808 ft | 477 kts | 283° |
| 2026-05-04 22:16 | 17.65546 | 83.30628 | 35826 ft | 478 kts | 283° |
| 2026-05-04 22:16 | 17.67316 | 83.23904 | 35827 ft | 480 kts | 287° |
| 2026-05-04 22:17 | 17.69479 | 83.17284 | 35831 ft | 480 kts | 287° |
| 2026-05-04 22:17 | 17.71626 | 83.10638 | 35829 ft | 481 kts | 287° |
| 2026-05-04 22:18 | 17.73774 | 83.03976 | 35833 ft | 482 kts | 287° |
| 2026-05-04 22:18 | 17.75922 | 82.97312 | 35852 ft | 482 kts | 287° |
| 2026-05-04 22:19 | 17.78067 | 82.90646 | 35857 ft | 483 kts | 287° |
| 2026-05-04 22:19 | 17.80212 | 82.83973 | 35872 ft | 482 kts | 287° |
| 2026-05-04 22:20 | 17.82354 | 82.77302 | 35877 ft | 482 kts | 287° |
| 2026-05-04 22:20 | 17.84491 | 82.70636 | 35855 ft | 482 kts | 287° |
| 2026-05-04 22:21 | 17.86627 | 82.63966 | 35866 ft | 482 kts | 287° |
| 2026-05-04 22:21 | 17.88759 | 82.57300 | 35886 ft | 482 kts | 286° |
| 2026-05-04 22:22 | 17.90891 | 82.50623 | 35884 ft | 482 kts | 287° |
| 2026-05-04 22:22 | 17.93023 | 82.43941 | 35885 ft | 482 kts | 286° |
| 2026-05-04 22:23 | 17.95149 | 82.37265 | 35879 ft | 482 kts | 286° |
| 2026-05-04 22:23 | 17.97258 | 82.30636 | 35883 ft | 481 kts | 286° |
| 2026-05-04 22:24 | 17.99377 | 82.23968 | 35887 ft | 481 kts | 286° |
| 2026-05-04 22:24 | 18.01493 | 82.17298 | 35883 ft | 481 kts | 286° |
| 2026-05-04 22:25 | 18.03604 | 82.10636 | 35864 ft | 481 kts | 286° |
| 2026-05-04 22:25 | 18.05715 | 82.03963 | 35847 ft | 481 kts | 286° |
| 2026-05-04 22:26 | 18.07833 | 81.97293 | 35863 ft | 481 kts | 287° |
| 2026-05-04 22:26 | 18.10020 | 81.90644 | 35851 ft | 481 kts | 287° |
| 2026-05-04 22:27 | 18.12212 | 81.83989 | 35845 ft | 482 kts | 287° |
| 2026-05-04 22:27 | 18.14392 | 81.77330 | 35827 ft | 482 kts | 287° |
| 2026-05-04 22:28 | 18.16568 | 81.70668 | 35813 ft | 482 kts | 287° |
| 2026-05-04 22:28 | 18.18742 | 81.64004 | 35813 ft | 482 kts | 287° |
| 2026-05-04 22:29 | 18.20898 | 81.57387 | 35816 ft | 482 kts | 287° |
| 2026-05-04 22:29 | 18.23080 | 81.50679 | 35817 ft | 481 kts | 287° |
| 2026-05-04 22:30 | 18.25230 | 81.44062 | 35825 ft | 481 kts | 287° |
| 2026-05-04 22:30 | 18.27391 | 81.37404 | 35829 ft | 481 kts | 287° |
| 2026-05-04 22:31 | 18.29547 | 81.30749 | 35832 ft | 480 kts | 287° |
| 2026-05-04 22:31 | 18.31702 | 81.24094 | 35820 ft | 480 kts | 287° |
| 2026-05-04 22:32 | 18.33854 | 81.17436 | 35824 ft | 481 kts | 287° |
| 2026-05-04 22:32 | 18.36004 | 81.10776 | 35823 ft | 481 kts | 287° |
| 2026-05-04 22:33 | 18.38153 | 81.04109 | 35821 ft | 481 kts | 287° |
| 2026-05-04 22:33 | 18.40300 | 80.97441 | 35823 ft | 481 kts | 287° |
| 2026-05-04 22:34 | 18.42099 | 80.91846 | 35827 ft | 481 kts | 287° |
| 2026-05-04 22:34 | 18.44229 | 80.85214 | 35817 ft | 482 kts | 286° |
| 2026-05-04 22:35 | 18.46373 | 80.78528 | 35821 ft | 482 kts | 286° |
| 2026-05-04 22:35 | 18.48517 | 80.71834 | 35811 ft | 482 kts | 286° |
| 2026-05-04 22:36 | 18.50658 | 80.65140 | 35811 ft | 482 kts | 286° |
| 2026-05-04 22:36 | 18.52797 | 80.58445 | 35805 ft | 482 kts | 286° |
| 2026-05-04 22:37 | 18.54859 | 80.51720 | 35812 ft | 482 kts | 285° |
| 2026-05-04 22:37 | 18.56861 | 80.44978 | 35803 ft | 482 kts | 285° |
| 2026-05-04 22:38 | 18.58877 | 80.38237 | 35797 ft | 482 kts | 285° |
| 2026-05-04 22:38 | 18.60896 | 80.31500 | 35798 ft | 482 kts | 285° |
| 2026-05-04 22:39 | 18.62914 | 80.24759 | 35793 ft | 482 kts | 285° |
| 2026-05-04 22:39 | 18.64927 | 80.18022 | 35791 ft | 482 kts | 285° |
| 2026-05-04 22:40 | 18.66938 | 80.11283 | 35795 ft | 482 kts | 285° |
| 2026-05-04 22:40 | 18.68946 | 80.04546 | 35793 ft | 481 kts | 285° |
| 2026-05-04 22:41 | 18.70951 | 79.97807 | 35792 ft | 481 kts | 285° |
| 2026-05-04 22:41 | 18.72953 | 79.91069 | 35792 ft | 481 kts | 285° |
| 2026-05-04 22:42 | 18.74954 | 79.84326 | 35793 ft | 481 kts | 285° |
| 2026-05-04 22:42 | 18.76950 | 79.77587 | 35788 ft | 482 kts | 285° |
| 2026-05-04 22:43 | 18.78934 | 79.70880 | 35791 ft | 482 kts | 285° |
| 2026-05-04 22:43 | 18.80930 | 79.64125 | 35792 ft | 482 kts | 285° |
| 2026-05-04 22:44 | 18.82922 | 79.57370 | 35796 ft | 482 kts | 285° |
| 2026-05-04 22:44 | 18.84914 | 79.50609 | 35791 ft | 482 kts | 285° |
| 2026-05-04 22:45 | 18.86904 | 79.43843 | 35793 ft | 482 kts | 285° |
| 2026-05-04 22:45 | 18.89879 | 79.33711 | 35797 ft | 481 kts | 285° |
| 2026-05-04 22:46 | 18.91856 | 79.26966 | 35793 ft | 480 kts | 285° |
| 2026-05-04 22:46 | 18.93828 | 79.20226 | 35790 ft | 480 kts | 285° |
| 2026-05-04 22:47 | 18.95793 | 79.13501 | 35787 ft | 480 kts | 285° |
| 2026-05-04 22:47 | 18.97758 | 79.06764 | 35778 ft | 479 kts | 285° |
| 2026-05-04 22:48 | 18.99719 | 79.00032 | 35777 ft | 479 kts | 285° |
| 2026-05-04 22:48 | 19.01681 | 78.93289 | 35779 ft | 480 kts | 285° |
| 2026-05-04 22:49 | 19.03624 | 78.86599 | 35780 ft | 480 kts | 285° |
| 2026-05-04 22:49 | 19.05581 | 78.79852 | 35783 ft | 480 kts | 285° |
| 2026-05-04 22:50 | 19.07537 | 78.73100 | 35789 ft | 481 kts | 285° |
| 2026-05-04 22:50 | 19.09490 | 78.66345 | 35801 ft | 480 kts | 285° |
| 2026-05-04 22:51 | 19.11438 | 78.59599 | 35822 ft | 479 kts | 285° |
| 2026-05-04 22:51 | 19.13376 | 78.52878 | 35810 ft | 477 kts | 285° |
| 2026-05-04 22:52 | 19.15307 | 78.46172 | 35802 ft | 476 kts | 285° |
| 2026-05-04 22:52 | 19.17231 | 78.39477 | 35805 ft | 475 kts | 285° |
| 2026-05-04 22:53 | 19.19151 | 78.32788 | 35799 ft | 475 kts | 285° |
| 2026-05-04 22:53 | 19.21065 | 78.26108 | 35794 ft | 474 kts | 285° |
| 2026-05-04 22:54 | 19.22976 | 78.19434 | 35793 ft | 474 kts | 285° |
| 2026-05-04 22:54 | 19.24873 | 78.12766 | 35786 ft | 473 kts | 284° |
| 2026-05-04 22:55 | 19.26411 | 78.06017 | 35779 ft | 472 kts | 282° |
| 2026-05-04 22:55 | 19.27945 | 77.99272 | 35784 ft | 471 kts | 282° |
| 2026-05-04 22:56 | 19.29475 | 77.92523 | 35798 ft | 471 kts | 282° |
| 2026-05-04 22:56 | 19.31016 | 77.85794 | 35798 ft | 470 kts | 282° |
| 2026-05-04 22:57 | 19.32569 | 77.79071 | 35793 ft | 470 kts | 282° |
| 2026-05-04 22:57 | 19.34113 | 77.72354 | 35791 ft | 470 kts | 282° |
| 2026-05-04 22:58 | 19.35653 | 77.65635 | 35791 ft | 469 kts | 282° |
| 2026-05-04 22:58 | 19.37189 | 77.58917 | 35790 ft | 469 kts | 282° |
| 2026-05-04 22:59 | 19.38724 | 77.52193 | 35786 ft | 470 kts | 282° |
| 2026-05-04 22:59 | 19.40261 | 77.45453 | 35794 ft | 471 kts | 282° |
| 2026-05-04 23:00 | 19.41796 | 77.38704 | 35806 ft | 472 kts | 282° |
| 2026-05-04 23:00 | 19.43332 | 77.31943 | 35804 ft | 472 kts | 282° |
| 2026-05-04 23:01 | 19.44866 | 77.25176 | 35804 ft | 473 kts | 282° |
| 2026-05-04 23:01 | 19.46392 | 77.18395 | 35805 ft | 473 kts | 282° |
| 2026-05-04 23:02 | 19.47912 | 77.11615 | 35803 ft | 473 kts | 282° |
| 2026-05-04 23:02 | 19.49423 | 77.04876 | 35805 ft | 473 kts | 282° |
| 2026-05-04 23:03 | 19.50942 | 76.98083 | 35807 ft | 473 kts | 282° |
| 2026-05-04 23:03 | 19.52457 | 76.91297 | 35810 ft | 473 kts | 282° |
| 2026-05-04 23:04 | 19.53969 | 76.84512 | 35811 ft | 473 kts | 282° |
| 2026-05-04 23:04 | 19.55493 | 76.77737 | 35809 ft | 473 kts | 282° |
| 2026-05-04 23:05 | 19.57038 | 76.70965 | 35808 ft | 472 kts | 282° |
| 2026-05-04 23:05 | 19.58575 | 76.64195 | 35811 ft | 472 kts | 282° |
| 2026-05-04 23:06 | 19.60109 | 76.57421 | 35809 ft | 472 kts | 282° |
| 2026-05-04 23:06 | 19.61638 | 76.50648 | 35810 ft | 472 kts | 282° |
| 2026-05-04 23:07 | 19.63174 | 76.43830 | 35833 ft | 471 kts | 283° |
| 2026-05-04 23:07 | 19.64694 | 76.37075 | 35826 ft | 471 kts | 283° |
| 2026-05-04 23:08 | 19.66211 | 76.30321 | 35825 ft | 470 kts | 283° |
| 2026-05-04 23:08 | 19.67712 | 76.23627 | 35822 ft | 470 kts | 283° |
| 2026-05-04 23:09 | 19.69220 | 76.16886 | 35824 ft | 469 kts | 283° |
| 2026-05-04 23:09 | 19.70721 | 76.10161 | 35825 ft | 469 kts | 283° |
| 2026-05-04 23:10 | 19.72222 | 76.03428 | 35828 ft | 468 kts | 283° |
| 2026-05-04 23:10 | 19.73718 | 75.96707 | 35822 ft | 468 kts | 283° |
| 2026-05-04 23:11 | 19.75210 | 75.89991 | 35823 ft | 468 kts | 283° |
| 2026-05-04 23:11 | 19.76701 | 75.83263 | 35820 ft | 468 kts | 283° |
| 2026-05-04 23:12 | 19.78186 | 75.76548 | 35832 ft | 468 kts | 283° |
| 2026-05-04 23:12 | 19.79673 | 75.69815 | 35841 ft | 468 kts | 283° |
| 2026-05-04 23:13 | 19.81157 | 75.63083 | 35840 ft | 468 kts | 283° |
| 2026-05-04 23:13 | 19.82639 | 75.56347 | 35847 ft | 469 kts | 283° |
| 2026-05-04 23:14 | 19.84121 | 75.49600 | 35848 ft | 469 kts | 283° |
| 2026-05-04 23:14 | 19.85600 | 75.42852 | 35852 ft | 469 kts | 283° |
| 2026-05-04 23:15 | 19.87002 | 75.36082 | 35872 ft | 469 kts | 281° |
| 2026-05-04 23:15 | 19.88225 | 75.29287 | 35871 ft | 468 kts | 281° |
| 2026-05-04 23:16 | 19.89466 | 75.22495 | 35870 ft | 468 kts | 281° |
| 2026-05-04 23:16 | 19.90720 | 75.15720 | 35865 ft | 467 kts | 281° |
| 2026-05-04 23:17 | 19.91973 | 75.08951 | 35861 ft | 467 kts | 281° |
| 2026-05-04 23:17 | 19.93224 | 75.02178 | 35857 ft | 467 kts | 281° |
| 2026-05-04 23:18 | 19.94473 | 74.95401 | 35856 ft | 467 kts | 281° |
| 2026-05-04 23:18 | 19.95709 | 74.88676 | 35854 ft | 467 kts | 281° |
| 2026-05-04 23:19 | 19.96750 | 74.83001 | 35864 ft | 467 kts | 281° |
| 2026-05-04 23:19 | 19.98192 | 74.75128 | 35866 ft | 467 kts | 281° |
| 2026-05-04 23:20 | 19.99232 | 74.69435 | 35862 ft | 468 kts | 281° |
| 2026-05-04 23:20 | 20.00469 | 74.62649 | 35863 ft | 468 kts | 281° |
| 2026-05-04 23:21 | 20.01704 | 74.55855 | 35871 ft | 468 kts | 281° |
| 2026-05-04 23:21 | 20.02937 | 74.49062 | 35870 ft | 468 kts | 281° |
| 2026-05-04 23:22 | 20.04167 | 74.42267 | 35873 ft | 468 kts | 281° |
| 2026-05-04 23:22 | 20.05387 | 74.35516 | 35869 ft | 468 kts | 281° |
| 2026-05-04 23:23 | 20.06611 | 74.28723 | 35871 ft | 468 kts | 281° |
| 2026-05-04 23:23 | 20.07833 | 74.21927 | 35869 ft | 468 kts | 281° |
| 2026-05-04 23:24 | 20.09060 | 74.15090 | 35884 ft | 467 kts | 281° |
| 2026-05-04 23:24 | 20.10264 | 74.08361 | 35883 ft | 466 kts | 281° |
| 2026-05-04 23:25 | 20.11475 | 74.01579 | 35878 ft | 466 kts | 281° |
| 2026-05-04 23:25 | 20.12682 | 73.94810 | 35872 ft | 466 kts | 281° |
| 2026-05-04 23:26 | 20.13884 | 73.88047 | 35879 ft | 465 kts | 281° |
| 2026-05-04 23:26 | 20.15092 | 73.81233 | 35871 ft | 465 kts | 281° |
| 2026-05-04 23:27 | 20.16282 | 73.74511 | 35871 ft | 465 kts | 281° |
| 2026-05-04 23:27 | 20.17477 | 73.67743 | 35873 ft | 466 kts | 281° |
| 2026-05-04 23:28 | 20.18671 | 73.60965 | 35858 ft | 466 kts | 281° |
| 2026-05-04 23:28 | 20.19864 | 73.54175 | 35873 ft | 467 kts | 281° |
| 2026-05-04 23:29 | 20.21056 | 73.47377 | 35870 ft | 468 kts | 281° |
| 2026-05-04 23:29 | 20.22247 | 73.40566 | 35874 ft | 468 kts | 281° |
| 2026-05-04 23:30 | 20.23437 | 73.33750 | 35866 ft | 468 kts | 281° |
| 2026-05-04 23:30 | 20.24624 | 73.26932 | 35852 ft | 469 kts | 281° |
| 2026-05-04 23:31 | 20.25861 | 73.20124 | 35839 ft | 468 kts | 282° |
| 2026-05-04 23:31 | 20.27158 | 73.13322 | 35839 ft | 469 kts | 282° |
| 2026-05-04 23:32 | 20.28442 | 73.06516 | 35838 ft | 469 kts | 282° |
| 2026-05-04 23:32 | 20.29716 | 72.99708 | 35845 ft | 468 kts | 282° |
| 2026-05-04 23:33 | 20.30985 | 72.92907 | 35827 ft | 468 kts | 282° |
| 2026-05-04 23:33 | 20.32250 | 72.86114 | 35824 ft | 467 kts | 282° |
| 2026-05-04 23:34 | 20.33510 | 72.79329 | 35825 ft | 467 kts | 282° |
| 2026-05-04 23:34 | 20.34767 | 72.72548 | 35821 ft | 466 kts | 282° |
| 2026-05-04 23:35 | 20.36021 | 72.65770 | 35814 ft | 466 kts | 282° |
| 2026-05-04 23:35 | 20.37271 | 72.58997 | 35806 ft | 466 kts | 282° |
| 2026-05-04 23:36 | 20.38509 | 72.52269 | 35799 ft | 466 kts | 282° |
| 2026-05-04 23:36 | 20.39755 | 72.45488 | 35806 ft | 466 kts | 282° |
| 2026-05-04 23:37 | 20.40999 | 72.38703 | 35810 ft | 467 kts | 282° |
| 2026-05-04 23:37 | 20.42240 | 72.31915 | 35816 ft | 467 kts | 282° |
| 2026-05-04 23:38 | 20.43481 | 72.25115 | 35814 ft | 467 kts | 281° |
| 2026-05-04 23:38 | 20.44721 | 72.18302 | 35821 ft | 468 kts | 281° |
| 2026-05-04 23:39 | 20.45959 | 72.11484 | 35823 ft | 469 kts | 281° |
| 2026-05-04 23:39 | 20.47196 | 72.04660 | 35827 ft | 469 kts | 281° |
| 2026-05-04 23:40 | 20.48429 | 71.97828 | 35828 ft | 469 kts | 281° |
| 2026-05-04 23:40 | 20.49653 | 71.90992 | 35829 ft | 469 kts | 281° |
| 2026-05-04 23:41 | 20.50876 | 71.84164 | 35835 ft | 469 kts | 281° |
| 2026-05-04 23:41 | 20.52096 | 71.77347 | 35832 ft | 468 kts | 281° |
| 2026-05-04 23:42 | 20.53312 | 71.70526 | 35823 ft | 467 kts | 281° |
| 2026-05-04 23:42 | 20.54524 | 71.63713 | 35820 ft | 467 kts | 281° |
| 2026-05-04 23:43 | 20.55731 | 71.56908 | 35817 ft | 467 kts | 281° |
| 2026-05-04 23:43 | 20.56936 | 71.50102 | 35811 ft | 467 kts | 281° |
| 2026-05-04 23:44 | 20.58139 | 71.43292 | 35812 ft | 467 kts | 281° |
| 2026-05-04 23:44 | 20.59340 | 71.36474 | 35813 ft | 468 kts | 281° |
| 2026-05-04 23:45 | 20.60530 | 71.29703 | 35818 ft | 468 kts | 281° |
| 2026-05-04 23:45 | 20.61728 | 71.22872 | 35819 ft | 468 kts | 281° |
| 2026-05-04 23:46 | 20.62923 | 71.16041 | 35823 ft | 468 kts | 281° |
| 2026-05-04 23:46 | 20.64116 | 71.09205 | 35823 ft | 469 kts | 281° |
| 2026-05-04 23:47 | 20.65307 | 71.02359 | 35824 ft | 469 kts | 281° |
| 2026-05-04 23:47 | 20.66495 | 70.95522 | 35823 ft | 469 kts | 281° |
| 2026-05-04 23:48 | 20.67681 | 70.88678 | 35823 ft | 468 kts | 281° |
| 2026-05-04 23:48 | 20.68862 | 70.81842 | 35820 ft | 468 kts | 281° |
| 2026-05-04 23:49 | 20.70041 | 70.75002 | 35830 ft | 468 kts | 281° |
| 2026-05-04 23:49 | 20.71217 | 70.68165 | 35826 ft | 468 kts | 281° |
| 2026-05-04 23:50 | 20.72388 | 70.61339 | 35822 ft | 467 kts | 281° |
| 2026-05-04 23:50 | 20.73557 | 70.54510 | 35814 ft | 467 kts | 281° |
| 2026-05-04 23:51 | 20.74722 | 70.47686 | 35815 ft | 466 kts | 281° |
| 2026-05-04 23:51 | 20.75882 | 70.40870 | 35815 ft | 466 kts | 281° |
| 2026-05-04 23:52 | 20.77041 | 70.34051 | 35815 ft | 466 kts | 281° |
| 2026-05-04 23:52 | 20.78195 | 70.27240 | 35808 ft | 466 kts | 281° |
| 2026-05-04 23:53 | 20.79348 | 70.20418 | 35811 ft | 466 kts | 281° |
| 2026-05-04 23:53 | 20.80499 | 70.13595 | 35811 ft | 467 kts | 281° |
| 2026-05-04 23:54 | 20.81639 | 70.06812 | 35815 ft | 467 kts | 281° |
| 2026-05-04 23:54 | 20.82786 | 69.99978 | 35813 ft | 467 kts | 281° |
| 2026-05-04 23:55 | 20.83937 | 69.93102 | 35813 ft | 467 kts | 281° |
| 2026-05-04 23:56 | 20.85640 | 69.82891 | 35811 ft | 467 kts | 281° |
| 2026-05-04 23:56 | 20.86779 | 69.76045 | 35810 ft | 468 kts | 280° |
| 2026-05-04 23:57 | 20.87913 | 69.69203 | 35809 ft | 468 kts | 280° |
| 2026-05-04 23:57 | 20.89047 | 69.62352 | 35807 ft | 468 kts | 280° |
| 2026-05-04 23:58 | 20.90178 | 69.55501 | 35812 ft | 468 kts | 280° |
| 2026-05-04 23:58 | 20.91306 | 69.48648 | 35802 ft | 468 kts | 280° |
| 2026-05-04 23:59 | 20.92432 | 69.41788 | 35805 ft | 468 kts | 280° |
| 2026-05-04 23:59 | 20.93556 | 69.34925 | 35807 ft | 469 kts | 280° |
| 2026-05-05 00:00 | 20.94678 | 69.28054 | 35810 ft | 469 kts | 280° |
| 2026-05-05 00:00 | 20.95796 | 69.21193 | 35810 ft | 469 kts | 280° |
| 2026-05-05 00:01 | 20.96938 | 69.14325 | 35800 ft | 469 kts | 282° |
| 2026-05-05 00:01 | 20.98874 | 69.07676 | 35798 ft | 469 kts | 292° |
| 2026-05-05 00:02 | 21.01545 | 69.01298 | 35800 ft | 469 kts | 294° |
| 2026-05-05 00:02 | 21.04206 | 68.94920 | 35803 ft | 470 kts | 293° |
| 2026-05-05 00:03 | 21.06872 | 68.88527 | 35805 ft | 470 kts | 293° |
| 2026-05-05 00:03 | 21.09535 | 68.82137 | 35812 ft | 470 kts | 293° |
| 2026-05-05 00:04 | 21.12197 | 68.75747 | 35813 ft | 470 kts | 293° |
| 2026-05-05 00:04 | 21.14835 | 68.69403 | 35806 ft | 469 kts | 293° |
| 2026-05-05 00:05 | 21.17485 | 68.63024 | 35805 ft | 469 kts | 293° |
| 2026-05-05 00:05 | 21.20132 | 68.56644 | 35802 ft | 468 kts | 293° |
| 2026-05-05 00:06 | 21.22776 | 68.50262 | 35791 ft | 468 kts | 293° |
| 2026-05-05 00:06 | 21.25417 | 68.43879 | 35793 ft | 469 kts | 293° |
| 2026-05-05 00:07 | 21.28060 | 68.37484 | 35795 ft | 469 kts | 293° |
| 2026-05-05 00:07 | 21.30254 | 68.32170 | 35794 ft | 469 kts | 293° |
| 2026-05-05 00:08 | 21.32894 | 68.25765 | 35804 ft | 470 kts | 293° |
| 2026-05-05 00:08 | 21.35535 | 68.19354 | 35804 ft | 470 kts | 293° |
| 2026-05-05 00:09 | 21.38173 | 68.12939 | 35800 ft | 470 kts | 293° |
| 2026-05-05 00:09 | 21.40810 | 68.06519 | 35803 ft | 470 kts | 293° |
| 2026-05-05 00:10 | 21.43445 | 68.00095 | 35804 ft | 470 kts | 293° |
| 2026-05-05 00:10 | 21.46080 | 67.93664 | 35798 ft | 471 kts | 293° |
| 2026-05-05 00:11 | 21.48711 | 67.87232 | 35801 ft | 471 kts | 293° |
| 2026-05-05 00:11 | 21.51340 | 67.80798 | 35801 ft | 470 kts | 293° |
| 2026-05-05 00:12 | 21.53965 | 67.74367 | 35800 ft | 470 kts | 293° |
| 2026-05-05 00:12 | 21.56589 | 67.67926 | 35802 ft | 470 kts | 293° |
| 2026-05-05 00:13 | 21.59208 | 67.61494 | 35798 ft | 470 kts | 293° |
| 2026-05-05 00:13 | 21.61820 | 67.55068 | 35796 ft | 469 kts | 293° |
| 2026-05-05 00:14 | 21.64430 | 67.48638 | 35784 ft | 469 kts | 293° |
| 2026-05-05 00:14 | 21.67037 | 67.42207 | 35784 ft | 469 kts | 293° |
| 2026-05-05 00:15 | 21.69642 | 67.35774 | 35788 ft | 469 kts | 293° |
| 2026-05-05 00:15 | 21.72247 | 67.29333 | 35789 ft | 470 kts | 293° |
| 2026-05-05 00:16 | 21.74850 | 67.22887 | 35784 ft | 470 kts | 293° |
| 2026-05-05 00:16 | 21.77454 | 67.16431 | 35796 ft | 470 kts | 293° |
| 2026-05-05 00:17 | 21.80055 | 67.09973 | 35794 ft | 471 kts | 293° |
| 2026-05-05 00:17 | 21.82654 | 67.03510 | 35790 ft | 470 kts | 293° |
| 2026-05-05 00:18 | 21.85249 | 66.97051 | 35791 ft | 470 kts | 293° |
| 2026-05-05 00:18 | 21.87843 | 66.90584 | 35788 ft | 470 kts | 293° |
| 2026-05-05 00:19 | 21.90432 | 66.84121 | 35783 ft | 470 kts | 293° |
| 2026-05-05 00:19 | 21.93003 | 66.77696 | 35783 ft | 470 kts | 293° |
| 2026-05-05 00:20 | 21.95587 | 66.71228 | 35786 ft | 471 kts | 292° |
| 2026-05-05 00:20 | 21.98172 | 66.64750 | 35789 ft | 471 kts | 292° |
| 2026-05-05 00:21 | 22.00756 | 66.58266 | 35790 ft | 471 kts | 292° |
| 2026-05-05 00:21 | 22.03335 | 66.51788 | 35784 ft | 470 kts | 292° |
| 2026-05-05 00:22 | 22.05913 | 66.45305 | 35780 ft | 470 kts | 292° |
| 2026-05-05 00:22 | 22.08484 | 66.38815 | 35782 ft | 470 kts | 292° |
| 2026-05-05 00:23 | 22.11056 | 66.32325 | 35785 ft | 470 kts | 292° |
| 2026-05-05 00:23 | 22.13625 | 66.25838 | 35785 ft | 471 kts | 292° |
| 2026-05-05 00:24 | 22.16193 | 66.19343 | 35782 ft | 471 kts | 292° |
| 2026-05-05 00:24 | 22.18760 | 66.12840 | 35782 ft | 471 kts | 292° |
| 2026-05-05 00:25 | 22.21325 | 66.06333 | 35805 ft | 471 kts | 292° |
| 2026-05-05 00:25 | 22.23887 | 65.99824 | 35797 ft | 471 kts | 292° |
| 2026-05-05 00:26 | 22.26443 | 65.93320 | 35786 ft | 471 kts | 292° |
| 2026-05-05 00:26 | 22.28977 | 65.86867 | 35777 ft | 471 kts | 292° |
| 2026-05-05 00:27 | 22.31400 | 65.80686 | 35782 ft | 471 kts | 292° |
| 2026-05-05 00:27 | 22.33949 | 65.74173 | 35781 ft | 471 kts | 292° |
| 2026-05-05 00:28 | 22.36498 | 65.67654 | 35785 ft | 471 kts | 292° |
| 2026-05-05 00:28 | 22.39043 | 65.61134 | 35778 ft | 471 kts | 292° |
| 2026-05-05 00:29 | 22.41586 | 65.54611 | 35781 ft | 471 kts | 292° |
| 2026-05-05 00:29 | 22.44129 | 65.48078 | 35794 ft | 472 kts | 292° |
| 2026-05-05 00:30 | 22.46654 | 65.41584 | 35789 ft | 471 kts | 292° |
| 2026-05-05 00:30 | 22.49189 | 65.35053 | 35790 ft | 471 kts | 292° |
| 2026-05-05 00:31 | 22.51720 | 65.28524 | 35780 ft | 471 kts | 292° |
| 2026-05-05 00:31 | 22.54250 | 65.21989 | 35778 ft | 471 kts | 292° |
| 2026-05-05 00:32 | 22.56776 | 65.15455 | 35776 ft | 471 kts | 292° |
| 2026-05-05 00:32 | 22.59301 | 65.08915 | 35775 ft | 471 kts | 292° |
| 2026-05-05 00:33 | 22.61824 | 65.02370 | 35785 ft | 471 kts | 292° |
| 2026-05-05 00:33 | 22.64347 | 64.95816 | 35785 ft | 471 kts | 292° |
| 2026-05-05 00:34 | 22.66866 | 64.89265 | 35792 ft | 471 kts | 292° |
| 2026-05-05 00:34 | 22.69381 | 64.82713 | 35791 ft | 471 kts | 292° |
| 2026-05-05 00:35 | 22.71893 | 64.76160 | 35788 ft | 471 kts | 292° |
| 2026-05-05 00:35 | 22.74403 | 64.69603 | 35790 ft | 471 kts | 292° |
| 2026-05-05 00:36 | 22.76912 | 64.63039 | 35792 ft | 471 kts | 292° |
| 2026-05-05 00:36 | 22.79415 | 64.56482 | 35789 ft | 471 kts | 292° |
| 2026-05-05 00:37 | 22.81918 | 64.49914 | 35791 ft | 471 kts | 292° |
| 2026-05-05 00:37 | 22.84416 | 64.43350 | 35806 ft | 471 kts | 292° |
| 2026-05-05 00:38 | 22.86912 | 64.36783 | 35806 ft | 471 kts | 292° |
| 2026-05-05 00:38 | 22.89401 | 64.30223 | 35796 ft | 470 kts | 291° |
| 2026-05-05 00:39 | 22.91887 | 64.23661 | 35797 ft | 470 kts | 291° |
| 2026-05-05 00:39 | 22.94367 | 64.17107 | 35793 ft | 470 kts | 291° |
| 2026-05-05 00:40 | 22.96845 | 64.10548 | 35791 ft | 470 kts | 291° |
| 2026-05-05 00:40 | 22.99319 | 64.03990 | 35778 ft | 470 kts | 291° |
| 2026-05-05 00:41 | 23.01775 | 63.97472 | 35778 ft | 470 kts | 291° |
| 2026-05-05 00:41 | 23.04223 | 63.90897 | 35777 ft | 469 kts | 289° |
| 2026-05-05 00:42 | 23.05971 | 63.84080 | 35780 ft | 469 kts | 281° |
| 2026-05-05 00:42 | 23.06822 | 63.77060 | 35779 ft | 469 kts | 276° |
| 2026-05-05 00:43 | 23.07566 | 63.69978 | 35772 ft | 469 kts | 277° |
| 2026-05-05 00:43 | 23.08301 | 63.62971 | 35779 ft | 470 kts | 276° |
| 2026-05-05 00:44 | 23.09031 | 63.55921 | 35781 ft | 470 kts | 276° |
| 2026-05-05 00:44 | 23.09756 | 63.48863 | 35786 ft | 470 kts | 276° |
| 2026-05-05 00:45 | 23.10478 | 63.41803 | 35780 ft | 471 kts | 276° |
| 2026-05-05 00:45 | 23.11197 | 63.34739 | 35784 ft | 471 kts | 276° |
| 2026-05-05 00:46 | 23.11914 | 63.27663 | 35787 ft | 471 kts | 276° |
| 2026-05-05 00:46 | 23.12628 | 63.20588 | 35791 ft | 471 kts | 276° |
| 2026-05-05 00:47 | 23.13339 | 63.13508 | 35796 ft | 472 kts | 276° |
| 2026-05-05 00:47 | 23.14047 | 63.06426 | 35794 ft | 472 kts | 276° |
| 2026-05-05 00:48 | 23.14753 | 62.99337 | 35790 ft | 472 kts | 276° |
| 2026-05-05 00:48 | 23.15456 | 62.92240 | 35804 ft | 472 kts | 276° |
| 2026-05-05 00:49 | 23.16154 | 62.85155 | 35802 ft | 472 kts | 276° |
| 2026-05-05 00:49 | 23.16851 | 62.78060 | 35799 ft | 472 kts | 276° |
| 2026-05-05 00:50 | 23.17544 | 62.70969 | 35798 ft | 472 kts | 276° |
| 2026-05-05 00:50 | 23.18233 | 62.63880 | 35799 ft | 472 kts | 276° |
| 2026-05-05 00:51 | 23.18920 | 62.56785 | 35801 ft | 472 kts | 276° |
| 2026-05-05 00:51 | 23.19603 | 62.49694 | 35796 ft | 472 kts | 276° |
| 2026-05-05 00:52 | 23.20283 | 62.42596 | 35794 ft | 472 kts | 276° |
| 2026-05-05 00:52 | 23.20846 | 62.36702 | 35790 ft | 472 kts | 276° |
| 2026-05-05 00:53 | 23.21520 | 62.29602 | 35793 ft | 472 kts | 276° |
| 2026-05-05 00:53 | 23.22192 | 62.22503 | 35795 ft | 472 kts | 276° |
| 2026-05-05 00:54 | 23.22860 | 62.15404 | 35788 ft | 472 kts | 276° |
| 2026-05-05 00:54 | 23.23525 | 62.08299 | 35792 ft | 472 kts | 276° |
| 2026-05-05 00:55 | 23.24187 | 62.01198 | 35794 ft | 472 kts | 276° |
| 2026-05-05 00:55 | 23.24845 | 61.94094 | 35800 ft | 472 kts | 276° |
| 2026-05-05 00:56 | 23.25501 | 61.86992 | 35794 ft | 472 kts | 276° |
| 2026-05-05 00:56 | 23.26152 | 61.79901 | 35794 ft | 472 kts | 276° |
| 2026-05-05 00:57 | 23.26801 | 61.72800 | 35799 ft | 471 kts | 276° |
| 2026-05-05 00:57 | 23.27446 | 61.65706 | 35793 ft | 471 kts | 276° |
| 2026-05-05 00:58 | 23.28082 | 61.58668 | 35788 ft | 471 kts | 276° |
| 2026-05-05 00:58 | 23.28720 | 61.51577 | 35786 ft | 471 kts | 276° |
| 2026-05-05 00:59 | 23.29355 | 61.44491 | 35787 ft | 471 kts | 276° |
| 2026-05-05 00:59 | 23.29985 | 61.37409 | 35785 ft | 471 kts | 276° |
| 2026-05-05 01:00 | 23.30614 | 61.30310 | 35779 ft | 471 kts | 276° |
| 2026-05-05 01:00 | 23.31240 | 61.23222 | 35781 ft | 471 kts | 276° |
| 2026-05-05 01:01 | 23.31880 | 61.16142 | 35777 ft | 470 kts | 277° |
| 2026-05-05 01:01 | 23.32783 | 61.09087 | 35776 ft | 471 kts | 278° |
| 2026-05-05 01:02 | 23.33711 | 61.02039 | 35771 ft | 471 kts | 278° |
| 2026-05-05 01:02 | 23.34602 | 60.94989 | 35788 ft | 470 kts | 278° |
| 2026-05-05 01:03 | 23.35481 | 60.87935 | 35785 ft | 470 kts | 278° |
| 2026-05-05 01:03 | 23.36354 | 60.80902 | 35779 ft | 470 kts | 278° |
| 2026-05-05 01:04 | 23.37227 | 60.73840 | 35775 ft | 470 kts | 278° |
| 2026-05-05 01:04 | 23.38981 | 60.63368 | 35774 ft | 470 kts | 286° |
| 2026-05-05 01:05 | 23.41269 | 60.56710 | 35769 ft | 470 kts | 291° |
| 2026-05-05 01:05 | 23.43689 | 60.50101 | 35766 ft | 470 kts | 291° |
| 2026-05-05 01:06 | 23.46098 | 60.43491 | 35767 ft | 470 kts | 291° |
| 2026-05-05 01:06 | 23.48508 | 60.36877 | 35764 ft | 470 kts | 291° |
| 2026-05-05 01:07 | 23.50918 | 60.30264 | 35779 ft | 469 kts | 291° |
| 2026-05-05 01:07 | 23.53320 | 60.23657 | 35776 ft | 469 kts | 291° |
| 2026-05-05 01:08 | 23.55722 | 60.17044 | 35766 ft | 469 kts | 291° |
| 2026-05-05 01:08 | 23.58116 | 60.10441 | 35767 ft | 469 kts | 291° |
| 2026-05-05 01:09 | 23.60508 | 60.03833 | 35764 ft | 468 kts | 291° |
| 2026-05-05 01:09 | 23.62898 | 59.97222 | 35764 ft | 468 kts | 291° |
| 2026-05-05 01:10 | 23.65283 | 59.90612 | 35762 ft | 468 kts | 290° |
| 2026-05-05 01:10 | 23.67650 | 59.84045 | 35769 ft | 468 kts | 290° |
| 2026-05-05 01:11 | 23.70028 | 59.77437 | 35768 ft | 468 kts | 290° |
| 2026-05-05 01:11 | 23.72400 | 59.70831 | 35766 ft | 468 kts | 290° |
| 2026-05-05 01:12 | 23.74773 | 59.64217 | 35764 ft | 468 kts | 290° |
| 2026-05-05 01:12 | 23.77155 | 59.57564 | 35753 ft | 468 kts | 290° |
| 2026-05-05 01:13 | 23.79504 | 59.50996 | 35754 ft | 468 kts | 290° |
| 2026-05-05 01:13 | 23.81866 | 59.44382 | 35758 ft | 468 kts | 290° |
| 2026-05-05 01:14 | 23.84224 | 59.37767 | 35769 ft | 467 kts | 290° |
| 2026-05-05 01:14 | 23.86580 | 59.31147 | 35765 ft | 467 kts | 290° |
| 2026-05-05 01:15 | 23.88930 | 59.24532 | 35764 ft | 467 kts | 290° |
| 2026-05-05 01:15 | 23.91280 | 59.17910 | 35763 ft | 467 kts | 290° |
| 2026-05-05 01:16 | 23.93596 | 59.11321 | 35756 ft | 467 kts | 289° |
| 2026-05-05 01:16 | 23.95728 | 59.04629 | 35763 ft | 467 kts | 288° |
| 2026-05-05 01:17 | 23.97851 | 58.97912 | 35756 ft | 467 kts | 288° |
| 2026-05-05 01:17 | 23.99990 | 58.91213 | 35752 ft | 467 kts | 288° |
| 2026-05-05 01:18 | 24.02134 | 58.84510 | 35778 ft | 467 kts | 288° |
| 2026-05-05 01:18 | 24.04261 | 58.77851 | 35772 ft | 466 kts | 288° |
| 2026-05-05 01:19 | 24.06395 | 58.71155 | 35769 ft | 466 kts | 288° |
| 2026-05-05 01:19 | 24.08526 | 58.64458 | 35768 ft | 466 kts | 288° |
| 2026-05-05 01:20 | 24.10652 | 58.57766 | 35766 ft | 466 kts | 288° |
| 2026-05-05 01:20 | 24.12777 | 58.51065 | 35766 ft | 466 kts | 288° |
| 2026-05-05 01:21 | 24.14877 | 58.44432 | 35759 ft | 465 kts | 288° |
| 2026-05-05 01:21 | 24.16998 | 58.37721 | 35780 ft | 465 kts | 288° |
| 2026-05-05 01:22 | 24.19106 | 58.31040 | 35777 ft | 464 kts | 288° |
| 2026-05-05 01:22 | 24.21210 | 58.24357 | 35772 ft | 464 kts | 288° |
| 2026-05-05 01:23 | 24.23313 | 58.17669 | 35761 ft | 464 kts | 288° |
| 2026-05-05 01:23 | 24.25393 | 58.11044 | 35763 ft | 463 kts | 287° |
| 2026-05-05 01:24 | 24.27486 | 58.04364 | 35766 ft | 463 kts | 287° |
| 2026-05-05 01:24 | 24.29572 | 57.97693 | 35762 ft | 463 kts | 287° |
| 2026-05-05 01:25 | 24.31657 | 57.91016 | 35756 ft | 463 kts | 287° |
| 2026-05-05 01:25 | 24.33735 | 57.84350 | 35766 ft | 462 kts | 287° |
| 2026-05-05 01:26 | 24.35798 | 57.77721 | 35759 ft | 462 kts | 287° |
| 2026-05-05 01:26 | 24.37868 | 57.71056 | 35760 ft | 462 kts | 287° |
| 2026-05-05 01:27 | 24.39935 | 57.64390 | 35759 ft | 462 kts | 287° |
| 2026-05-05 01:27 | 24.42001 | 57.57718 | 35760 ft | 461 kts | 287° |
| 2026-05-05 01:28 | 24.44058 | 57.51060 | 35757 ft | 461 kts | 287° |
| 2026-05-05 01:28 | 24.46105 | 57.44426 | 35750 ft | 461 kts | 287° |
| 2026-05-05 01:29 | 24.48160 | 57.37754 | 35746 ft | 461 kts | 287° |
| 2026-05-05 01:29 | 24.50214 | 57.31073 | 35746 ft | 462 kts | 287° |
| 2026-05-05 01:30 | 24.52263 | 57.24399 | 35747 ft | 462 kts | 287° |
| 2026-05-05 01:30 | 24.54297 | 57.17761 | 35747 ft | 462 kts | 287° |
| 2026-05-05 01:31 | 24.56344 | 57.11068 | 35746 ft | 462 kts | 287° |
| 2026-05-05 01:31 | 24.58389 | 57.04371 | 35749 ft | 462 kts | 287° |
| 2026-05-05 01:32 | 24.60425 | 56.97691 | 35487 ft | 459 kts | 287° |
| 2026-05-05 01:32 | 24.61440 | 56.94356 | 34626 ft | 463 kts | 287° |
| 2026-05-05 01:32 | 24.62466 | 56.90977 | 33557 ft | 469 kts | 287° |
| 2026-05-05 01:33 | 24.63497 | 56.87590 | 32281 ft | 476 kts | 288° |
| 2026-05-05 01:33 | 24.64745 | 56.84229 | 31501 ft | 474 kts | 294° |
| 2026-05-05 01:33 | 24.66296 | 56.81051 | 30777 ft | 470 kts | 299° |
| 2026-05-05 01:33 | 24.68004 | 56.78005 | 30064 ft | 466 kts | 299° |
| 2026-05-05 01:34 | 24.69681 | 56.74975 | 29287 ft | 462 kts | 299° |
| 2026-05-05 01:34 | 24.71332 | 56.71974 | 28537 ft | 457 kts | 299° |
| 2026-05-05 01:34 | 24.72967 | 56.68998 | 27779 ft | 452 kts | 299° |
| 2026-05-05 01:34 | 24.74589 | 56.66050 | 27045 ft | 448 kts | 299° |
| 2026-05-05 01:35 | 24.76175 | 56.63167 | 26319 ft | 444 kts | 299° |
| 2026-05-05 01:35 | 24.77769 | 56.60270 | 25611 ft | 441 kts | 300° |
| 2026-05-05 01:35 | 24.79348 | 56.57399 | 24927 ft | 437 kts | 300° |
| 2026-05-05 01:35 | 24.80915 | 56.54548 | 24251 ft | 433 kts | 300° |
| 2026-05-05 01:36 | 24.82468 | 56.51721 | 23559 ft | 431 kts | 300° |
| 2026-05-05 01:36 | 24.84016 | 56.48901 | 22799 ft | 428 kts | 300° |
| 2026-05-05 01:36 | 24.85543 | 56.46119 | 22106 ft | 422 kts | 300° |
| 2026-05-05 01:36 | 24.87039 | 56.43368 | 21397 ft | 416 kts | 297° |
| 2026-05-05 01:37 | 24.88114 | 56.40432 | 20682 ft | 411 kts | 284° |
| 2026-05-05 01:37 | 24.88500 | 56.37380 | 20010 ft | 406 kts | 272° |
| 2026-05-05 01:37 | 24.88435 | 56.34289 | 19336 ft | 403 kts | 266° |
| 2026-05-05 01:37 | 24.88224 | 56.31229 | 18680 ft | 399 kts | 265° |
| 2026-05-05 01:38 | 24.88053 | 56.28195 | 17992 ft | 395 kts | 271° |
| 2026-05-05 01:38 | 24.88406 | 56.25213 | 17262 ft | 392 kts | 284° |
| 2026-05-05 01:38 | 24.89345 | 56.22407 | 16568 ft | 390 kts | 296° |
| 2026-05-05 01:38 | 24.90672 | 56.19820 | 15845 ft | 387 kts | 299° |
| 2026-05-05 01:39 | 24.92003 | 56.17256 | 15163 ft | 384 kts | 299° |
| 2026-05-05 01:39 | 24.93312 | 56.14711 | 14480 ft | 381 kts | 299° |
| 2026-05-05 01:39 | 24.94597 | 56.12209 | 13795 ft | 379 kts | 299° |
| 2026-05-05 01:39 | 24.95885 | 56.09698 | 13121 ft | 375 kts | 299° |
| 2026-05-05 01:40 | 24.97213 | 56.07237 | 12357 ft | 373 kts | 304° |
| 2026-05-05 01:40 | 24.98820 | 56.05006 | 11665 ft | 370 kts | 312° |
| 2026-05-05 01:40 | 25.00555 | 56.02923 | 10967 ft | 367 kts | 313° |
| 2026-05-05 01:40 | 25.02251 | 56.00857 | 10593 ft | 356 kts | 313° |
| 2026-05-05 01:41 | 25.03871 | 55.98873 | 10432 ft | 340 kts | 313° |
| 2026-05-05 01:41 | 25.05415 | 55.96979 | 10310 ft | 325 kts | 313° |
| 2026-05-05 01:41 | 25.06893 | 55.95167 | 10185 ft | 311 kts | 313° |
| 2026-05-05 01:41 | 25.08312 | 55.93426 | 10066 ft | 299 kts | 313° |
| 2026-05-05 01:42 | 25.09698 | 55.91724 | 9622 ft | 299 kts | 313° |
| 2026-05-05 01:42 | 25.11094 | 55.90012 | 9128 ft | 300 kts | 313° |
| 2026-05-05 01:42 | 25.12473 | 55.88320 | 8982 ft | 294 kts | 313° |
| 2026-05-05 01:42 | 25.13816 | 55.86670 | 8864 ft | 294 kts | 313° |
| 2026-05-05 01:43 | 25.15202 | 55.84965 | 8667 ft | 295 kts | 312° |
| 2026-05-05 01:43 | 25.16380 | 55.83147 | 8553 ft | 296 kts | 302° |
| 2026-05-05 01:43 | 25.17450 | 55.81177 | 8437 ft | 296 kts | 303° |
| 2026-05-05 01:43 | 25.18510 | 55.79270 | 8309 ft | 296 kts | 303° |
| 2026-05-05 01:44 | 25.19590 | 55.77342 | 8132 ft | 295 kts | 303° |
| 2026-05-05 01:44 | 25.20663 | 55.75424 | 7915 ft | 293 kts | 303° |
| 2026-05-05 01:44 | 25.21731 | 55.73515 | 7643 ft | 291 kts | 303° |
| 2026-05-05 01:44 | 25.22791 | 55.71616 | 7529 ft | 290 kts | 303° |
| 2026-05-05 01:45 | 25.23848 | 55.69721 | 7384 ft | 290 kts | 303° |
| 2026-05-05 01:45 | 25.24907 | 55.67823 | 7232 ft | 290 kts | 303° |
| 2026-05-05 01:45 | 25.25962 | 55.65930 | 7031 ft | 290 kts | 303° |
| 2026-05-05 01:45 | 25.27015 | 55.64038 | 6793 ft | 289 kts | 303° |
| 2026-05-05 01:46 | 25.28069 | 55.62145 | 6515 ft | 289 kts | 303° |
| 2026-05-05 01:46 | 25.28885 | 55.60158 | 6311 ft | 282 kts | 282° |
| 2026-05-05 01:46 | 25.28865 | 55.58051 | 6197 ft | 269 kts | 256° |
| 2026-05-05 01:46 | 25.28065 | 55.56239 | 5822 ft | 263 kts | 228° |
| 2026-05-05 01:47 | 25.26605 | 55.55074 | 5531 ft | 260 kts | 198° |
| 2026-05-05 01:47 | 25.24830 | 55.54835 | 5417 ft | 259 kts | 169° |
| 2026-05-05 01:47 | 25.23178 | 55.55547 | 5311 ft | 255 kts | 140° |
| 2026-05-05 01:47 | 25.21975 | 55.56952 | 5196 ft | 252 kts | 122° |
| 2026-05-05 01:48 | 25.21042 | 55.58584 | 5077 ft | 251 kts | 117° |
| 2026-05-05 01:48 | 25.20177 | 55.60256 | 4964 ft | 251 kts | 117° |
| 2026-05-05 01:48 | 25.19303 | 55.61921 | 4852 ft | 250 kts | 118° |
| 2026-05-05 01:48 | 25.18416 | 55.63578 | 4731 ft | 250 kts | 118° |
| 2026-05-05 01:49 | 25.17516 | 55.65226 | 4618 ft | 251 kts | 118° |
| 2026-05-05 01:49 | 25.16607 | 55.66870 | 4500 ft | 251 kts | 119° |
| 2026-05-05 01:49 | 25.15697 | 55.68507 | 4374 ft | 250 kts | 119° |
| 2026-05-05 01:49 | 25.14730 | 55.70094 | 4185 ft | 250 kts | 132° |
| 2026-05-05 01:50 | 25.13274 | 55.71142 | 3869 ft | 255 kts | 162° |
| 2026-05-05 01:50 | 25.11537 | 55.71302 | 3467 ft | 252 kts | 191° |
| 2026-05-05 01:50 | 25.09953 | 55.70533 | 2987 ft | 250 kts | 221° |
| 2026-05-05 01:50 | 25.08968 | 55.69045 | 2725 ft | 232 kts | 253° |
| 2026-05-05 01:51 | 25.08845 | 55.67381 | 2584 ft | 209 kts | 284° |
| 2026-05-05 01:51 | 25.09330 | 55.65989 | 2375 ft | 184 kts | 298° |
| 2026-05-05 01:51 | 25.09846 | 55.64697 | 2066 ft | 186 kts | 293° |
| 2026-05-05 01:51 | 25.10325 | 55.63363 | 2016 ft | 188 kts | 299° |
| 2026-05-05 01:52 | 25.11032 | 55.62155 | 2026 ft | 187 kts | 306° |
| 2026-05-05 01:52 | 25.11760 | 55.60961 | 2007 ft | 188 kts | 304° |
| 2026-05-05 01:52 | 25.12447 | 55.59734 | 2006 ft | 188 kts | 303° |
| 2026-05-05 01:52 | 25.13123 | 55.58501 | 2007 ft | 188 kts | 302° |
| 2026-05-05 01:53 | 25.13804 | 55.57268 | 2004 ft | 188 kts | 303° |
| 2026-05-05 01:53 | 25.14484 | 55.56033 | 2005 ft | 188 kts | 303° |
| 2026-05-05 01:53 | 25.15156 | 55.54811 | 2014 ft | 181 kts | 303° |
| 2026-05-05 01:53 | 25.15795 | 55.53648 | 2001 ft | 175 kts | 303° |
| 2026-05-05 01:54 | 25.16429 | 55.52501 | 2004 ft | 175 kts | 303° |
| 2026-05-05 01:54 | 25.17057 | 55.51359 | 2003 ft | 174 kts | 302° |
| 2026-05-05 01:54 | 25.17659 | 55.50266 | 1999 ft | 160 kts | 303° |
| 2026-05-05 01:54 | 25.18225 | 55.49240 | 1950 ft | 155 kts | 302° |
| 2026-05-05 01:55 | 25.18784 | 55.48225 | 1753 ft | 154 kts | 302° |
| 2026-05-05 01:55 | 25.19343 | 55.47211 | 1558 ft | 155 kts | 302° |
| 2026-05-05 01:55 | 25.19894 | 55.46208 | 1359 ft | 149 kts | 302° |
| 2026-05-05 01:55 | 25.20427 | 55.45245 | 1179 ft | 146 kts | 301° |
| 2026-05-05 01:56 | 25.20775 | 55.44613 | 1038 ft | 145 kts | 301° |
| 2026-05-05 01:56 | 25.21298 | 55.43664 | 881 ft | 144 kts | 301° |
| 2026-05-05 01:56 | 25.21985 | 55.42417 | 652 ft | 144 kts | 300° |
| 2026-05-05 01:56 | 25.22337 | 55.41782 | 536 ft | 142 kts | 300° |
| 2026-05-05 01:57 | 25.22849 | 55.40854 | 363 ft | 142 kts | 300° |
| 2026-05-05 01:57 | 25.23363 | 55.39917 | 147 ft | 143 kts | 299° |
| 2026-05-05 01:57 | 25.23867 | 55.38991 | 43 ft | 129 kts | 300° |
| 2026-05-05 01:57 | 25.24242 | 55.38312 | 36 ft | 76 kts | 302° |
| 2026-05-05 01:58 | 25.24470 | 55.37902 | 35 ft | 59 kts | 301° |
| 2026-05-05 01:58 | 25.24668 | 55.37548 | 33 ft | 49 kts | 301° |
| 2026-05-05 01:58 | 25.24782 | 55.37256 | 35 ft | 31 kts | 275° |
| 2026-05-05 01:58 | 25.24789 | 55.37079 | 30 ft | 22 kts | 272° |
| 2026-05-05 01:59 | 25.24821 | 55.36907 | 28 ft | 23 kts | 297° |
| 2026-05-05 01:59 | 25.24870 | 55.36753 | 28 ft | 13 kts | 282° |
| 2026-05-05 01:59 | 25.24906 | 55.36645 | 27 ft | 17 kts | 297° |
| 2026-05-05 01:59 | 25.24972 | 55.36522 | 27 ft | 20 kts | 301° |
| 2026-05-05 02:00 | 25.25047 | 55.36390 | 27 ft | 18 kts | 303° |
| 2026-05-05 02:00 | 25.25064 | 55.36361 | 27 ft | 0 kts | 302° |
| 2026-05-05 02:01 | 25.25073 | 55.36343 | 27 ft | 6 kts | 293° |
| 2026-05-05 02:01 | 25.25065 | 55.36308 | 27 ft | 7 kts | 217° |
| 2026-05-05 02:01 | 25.25005 | 55.36272 | 27 ft | 8 kts | 210° |
| 2026-05-05 02:01 | 25.24944 | 55.36230 | 26 ft | 8 kts | 212° |
| 2026-05-05 02:02 | 25.24930 | 55.36221 | 26 ft | 2 kts | 211° |
| 2026-05-05 02:02 | 25.24928 | 55.36220 | 26 ft | 0 kts | 211° |